Thunder radar more information blitzortung!


Radar de pluja more information rain snow radar


Visita la nostra xarxa de llocs de meteo:

Template documentation
and downloads

And another site



No particular awareness of the weather is required.    There are no Weather-warnings

Pagina Historial Weather Underground text

Diari Resum Setembre 26, 2017 Unitats:  Mètric    Imperial   Tant
« Previous Dia
SegĂźent Dia »
Diari Setmana Mensual Anual Personalitzada
  Maxima: Minima: Media:
Temperatura: 25.8 °C 14.7 °C 20.7 °C
Punt de rosada: 15.2 °C 11.4 °C 13 °C
Humitat: 83 % 44 % 63 %
Wind Speed: 20.4 km/h 0.0 km/h 5.3 km/h
RĂ fegues de vent: 20.4 km/h - -
Vent:- - SSW
Pression baro: 1022.9 hPa 1017.8 hPa -
Precipitacions: 0.0 mm    
Historical Graphs
 
 
Dades de taula per Setembre 26, 2017
Temps Temperatura Punt de rosada Pression baro Vent Wind Speed RĂ fegues de vent Humitat Rainfall Rate (Hourly)
00:04 16.6 °C 12.6 °C 1021.9 hPa Calm     77 % 0.0 mm
00:20 15.4 °C 12.2 °C 1020.9 hPa Calm     81 % 0.0 mm
00:30 15.3 °C 12.1 °C 1020.9 hPa WSW 3.2 km/h 4.8 km/h 81 % 0.0 mm
00:40 15.2 °C 11.9 °C 1020.9 hPa SW 3.2 km/h 3.2 km/h 81 % 0.0 mm
00:50 15.1 °C 12.1 °C 1020.9 hPa Calm   4.8 km/h 82 % 0.0 mm
01:00 15.0 °C 11.9 °C 1019.9 hPa SW 3.2 km/h 3.2 km/h 82 % 0.0 mm
01:10 15.0 °C 12.1 °C 1019.9 hPa SW 1.6 km/h 4.8 km/h 83 % 0.0 mm
01:20 15.0 °C 12.1 °C 1019.9 hPa Calm   1.6 km/h 83 % 0.0 mm
01:30 15.0 °C 12.1 °C 1019.9 hPa SW 1.6 km/h 3.2 km/h 83 % 0.0 mm
01:40 15.0 °C 12.1 °C 1020.9 hPa SW 3.2 km/h 3.2 km/h 83 % 0.0 mm
01:45 15.0 °C 12.1 °C 1020.9 hPa WSW 1.6 km/h 3.2 km/h 83 % 0.0 mm
01:55 15.0 °C 12.1 °C 1020.9 hPa Calm   3.2 km/h 83 % 0.0 mm
02:05 14.9 °C 12.1 °C 1020.9 hPa Calm   1.6 km/h 83 % 0.0 mm
02:15 14.8 °C 11.9 °C 1020.9 hPa Calm     83 % 0.0 mm
02:25 14.9 °C 12.1 °C 1020.9 hPa Calm   1.6 km/h 83 % 0.0 mm
02:35 14.9 °C 11.8 °C 1020.9 hPa NW 1.6 km/h 3.2 km/h 82 % 0.0 mm
02:45 14.9 °C 11.8 °C 1020.9 hPa West 1.6 km/h 3.2 km/h 82 % 0.0 mm
02:55 14.9 °C 11.8 °C 1020.9 hPa Calm   1.6 km/h 82 % 0.0 mm
03:05 14.7 °C 11.4 °C 1020.9 hPa WSW 1.6 km/h 3.2 km/h 81 % 0.0 mm
03:15 14.8 °C 11.8 °C 1021.9 hPa Calm   3.2 km/h 82 % 0.0 mm
03:25 15.0 °C 11.8 °C 1021.9 hPa SW 1.6 km/h 3.2 km/h 81 % 0.0 mm
03:35 15.4 °C 12.2 °C 1021.9 hPa Calm   3.2 km/h 81 % 0.0 mm
03:45 15.6 °C 12.3 °C 1021.9 hPa Calm   3.2 km/h 81 % 0.0 mm
03:55 16.4 °C 12.9 °C 1021.9 hPa South 1.6 km/h 3.2 km/h 80 % 0.0 mm
04:05 16.1 °C 12.4 °C 1021.9 hPa Calm   3.2 km/h 79 % 0.0 mm
04:15 17.1 °C 13.2 °C 1021.9 hPa SW 1.6 km/h 3.2 km/h 78 % 0.0 mm
04:25 17.3 °C 13.2 °C 1021.9 hPa South 3.2 km/h 3.2 km/h 77 % 0.0 mm
04:35 17.3 °C 13.0 °C 1021.9 hPa SW 1.6 km/h 3.2 km/h 76 % 0.0 mm
04:45 18.2 °C 13.7 °C 1021.9 hPa WSW 3.2 km/h 3.2 km/h 75 % 0.0 mm
04:55 18.3 °C 13.6 °C 1021.9 hPa ENE 1.6 km/h 4.8 km/h 74 % 0.0 mm
05:05 18.5 °C 13.3 °C 1021.9 hPa ENE 3.2 km/h 3.2 km/h 72 % 0.0 mm
05:15 19.0 °C 13.6 °C 1020.9 hPa ENE 4.8 km/h 6.4 km/h 71 % 0.0 mm
05:25 19.2 °C 13.8 °C 1021.9 hPa NE 4.8 km/h 4.8 km/h 71 % 0.0 mm
05:35 19.5 °C 13.9 °C 1021.9 hPa NE 1.6 km/h 6.4 km/h 70 % 0.0 mm
05:45 20.2 °C 14.1 °C 1021.9 hPa NE 1.6 km/h 3.2 km/h 68 % 0.0 mm
05:55 19.9 °C 13.6 °C 1021.9 hPa ENE 3.2 km/h 6.4 km/h 67 % 0.0 mm
06:05 20.4 °C 13.8 °C 1021.9 hPa East 3.2 km/h 4.8 km/h 66 % 0.0 mm
11:10 20.8 °C 14.0 °C 1021.9 hPa NE 5.3 km/h 5.3 km/h 65 % 0.0 mm
11:15 20.6 °C 13.8 °C 1021.9 hPa ENE 3.7 km/h 4.2 km/h 65 % 0.0 mm
11:20 20.9 °C 13.8 °C 1020.9 hPa ESE 5.6 km/h 5.6 km/h 64 % 0.0 mm
11:25 21.2 °C 13.9 °C 1020.9 hPa East 5.6 km/h 5.6 km/h 63 % 0.0 mm
11:30 21.4 °C 14.1 °C 1020.9 hPa ESE 5.8 km/h 5.8 km/h 63 % 0.0 mm
11:35 21.4 °C 14.1 °C 1020.9 hPa SSE 5.6 km/h 5.6 km/h 63 % 0.0 mm
11:40 21.8 °C 14.2 °C 1020.9 hPa ESE 7.4 km/h 7.4 km/h 62 % 0.0 mm
11:45 22.2 °C 14.3 °C 1020.9 hPa NNE 3.7 km/h 3.9 km/h 61 % 0.0 mm
11:50 21.8 °C 13.9 °C 1021.9 hPa NNE 5.6 km/h 5.6 km/h 61 % 0.0 mm
11:55 21.6 °C 13.8 °C 1021.9 hPa ESE 7.4 km/h 7.4 km/h 61 % 0.0 mm
12:00 21.8 °C 13.9 °C 1021.9 hPa ESE 3.7 km/h 3.7 km/h 61 % 0.0 mm
12:05 22.1 °C 13.9 °C 1021.9 hPa ESE 3.7 km/h   60 % 0.0 mm
12:10 22.5 °C 14.3 °C 1021.9 hPa NNE 5.6 km/h 5.6 km/h 60 % 0.0 mm
12:15 22.3 °C 13.9 °C 1021.9 hPa ESE 7.4 km/h 7.4 km/h 59 % 0.0 mm
12:20 22.5 °C 14.1 °C 1021.9 hPa ESE 7.4 km/h 7.4 km/h 59 % 0.0 mm
12:25 22.8 °C 14.4 °C 1021.9 hPa ESE 5.6 km/h 5.6 km/h 59 % 0.0 mm
12:30 22.9 °C 14.4 °C 1021.9 hPa NW 3.7 km/h 3.7 km/h 59 % 0.0 mm
12:35 23.2 °C 14.5 °C 1021.9 hPa SSW 3.7 km/h 3.7 km/h 58 % 0.0 mm
12:40 23.3 °C 14.6 °C 1021.9 hPa WSW 2.6 km/h 3.2 km/h 58 % 0.0 mm
12:45 23.7 °C 15.2 °C 1021.9 hPa SW 9.3 km/h 9.3 km/h 59 % 0.0 mm
12:50 23.9 °C 14.3 °C 1021.9 hPa WSW 3.7 km/h 3.7 km/h 55 % 0.0 mm
12:55 24.4 °C 15.1 °C 1021.9 hPa WNW 9.3 km/h 9.3 km/h 56 % 0.0 mm
13:00 24.5 °C 14.9 °C 1021.9 hPa West 9.3 km/h 9.3 km/h 55 % 0.0 mm
13:01 24.5 °C 14.9 °C 1020.9 hPa SW 9.5 km/h 9.5 km/h 55 % 0.0 mm
13:06 24.6 °C 14.7 °C 1020.9 hPa WNW 5.6 km/h 5.6 km/h 54 % 0.0 mm
13:11 24.6 °C 14.4 °C 1020.9 hPa WNW 9.3 km/h 9.3 km/h 53 % 0.0 mm
13:16 23.9 °C 14.0 °C 1020.9 hPa SW 5.6 km/h 5.6 km/h 54 % 0.0 mm
13:21 23.7 °C 13.8 °C 1020.9 hPa SSW 5.6 km/h 5.6 km/h 54 % 0.0 mm
13:26 23.9 °C 14.0 °C 1020.9 hPa SW 7.4 km/h 7.4 km/h 54 % 0.0 mm
13:31 24.5 °C 14.3 °C 1020.9 hPa WSW 9.3 km/h 9.3 km/h 53 % 0.0 mm
13:36 24.8 °C 14.6 °C 1020.9 hPa SSW 9.3 km/h 9.3 km/h 53 % 0.0 mm
13:46 25.0 °C 13.8 °C 1019.9 hPa SW 7.4 km/h 7.4 km/h 50 % 0.0 mm
13:51 24.5 °C 13.7 °C 1019.9 hPa SSW 5.6 km/h 5.6 km/h 51 % 0.0 mm
13:56 24.9 °C 13.8 °C 1019.9 hPa WSW 6.4 km/h 6.4 km/h 50 % 0.0 mm
14:01 24.5 °C 13.4 °C 1019.9 hPa SW 11.1 km/h 11.1 km/h 50 % 0.0 mm
14:06 24.3 °C 13.2 °C 1019.9 hPa WSW 13.0 km/h 13.0 km/h 50 % 0.0 mm
14:11 24.5 °C 13.1 °C 1019.9 hPa SSW 9.3 km/h 9.3 km/h 49 % 0.0 mm
14:16 25.1 °C 13.6 °C 1019.9 hPa SSW 9.5 km/h 9.5 km/h 49 % 0.0 mm
14:21 25.1 °C 13.3 °C 1019.9 hPa South 5.6 km/h 5.6 km/h 48 % 0.0 mm
14:26 25.1 °C 13.3 °C 1019.9 hPa WSW 7.4 km/h 7.4 km/h 48 % 0.0 mm
14:31 25.2 °C 13.4 °C 1019.9 hPa WSW 7.4 km/h 7.4 km/h 48 % 0.0 mm
14:36 25.1 °C 13.0 °C 1019.9 hPa SSW 7.4 km/h 7.4 km/h 47 % 0.0 mm
14:41 25.2 °C 13.1 °C 1019.9 hPa SW 7.4 km/h 7.4 km/h 47 % 0.0 mm
14:46 25.0 °C 12.9 °C 1018.8 hPa South 9.3 km/h 9.3 km/h 47 % 0.0 mm
14:51 25.3 °C 13.2 °C 1018.8 hPa SW 7.4 km/h 7.4 km/h 47 % 0.0 mm
14:56 24.8 °C 13.1 °C 1018.8 hPa SW 16.7 km/h 16.7 km/h 48 % 0.0 mm
15:01 24.3 °C 12.6 °C 1018.8 hPa WSW 14.8 km/h 14.8 km/h 48 % 0.0 mm
15:06 24.6 °C 12.8 °C 1018.8 hPa South 11.1 km/h 11.1 km/h 48 % 0.0 mm
15:11 24.3 °C 12.6 °C 1018.8 hPa SW 13.0 km/h 13.0 km/h 48 % 0.0 mm
15:16 24.9 °C 13.1 °C 1018.8 hPa WSW 9.5 km/h 9.5 km/h 48 % 0.0 mm
15:21 25.0 °C 12.9 °C 1018.8 hPa SW 10.0 km/h 10.0 km/h 47 % 0.0 mm
15:26 24.9 °C 12.8 °C 1018.8 hPa SW 18.5 km/h 18.5 km/h 47 % 0.0 mm
15:31 25.4 °C 12.9 °C 1018.8 hPa South 7.4 km/h 7.4 km/h 46 % 0.0 mm
15:36 25.7 °C 13.2 °C 1018.8 hPa West 9.3 km/h 9.3 km/h 46 % 0.0 mm
15:41 25.7 °C 13.2 °C 1018.8 hPa SW 13.0 km/h 13.0 km/h 46 % 0.0 mm
15:46 25.3 °C 12.5 °C 1018.8 hPa SW 9.3 km/h 9.3 km/h 45 % 0.0 mm
15:51 25.6 °C 12.8 °C 1018.8 hPa SW 13.0 km/h 13.0 km/h 45 % 0.0 mm
15:56 25.6 °C 12.8 °C 1018.8 hPa SSW 13.0 km/h 13.0 km/h 45 % 0.0 mm
16:01 25.8 °C 12.9 °C 1018.8 hPa WSW 12.6 km/h 12.6 km/h 45 % 0.0 mm
16:06 25.6 °C 12.8 °C 1018.8 hPa SSW 9.3 km/h 12.6 km/h 45 % 0.0 mm
16:11 25.1 °C 12.0 °C 1018.8 hPa SSW 20.4 km/h 20.4 km/h 44 % 0.0 mm
16:16 25.4 °C 12.3 °C 1018.8 hPa WSW 7.4 km/h 7.4 km/h 44 % 0.0 mm
16:21 25.3 °C 12.2 °C 1018.8 hPa WSW 14.8 km/h 14.8 km/h 44 % 0.0 mm
16:26 24.9 °C 12.2 °C 1018.8 hPa WSW 13.0 km/h 13.0 km/h 45 % 0.0 mm
16:31 24.7 °C 11.9 °C 1018.8 hPa SW 13.0 km/h 13.0 km/h 45 % 0.0 mm
16:36 24.3 °C 11.6 °C 1018.8 hPa SSW 6.9 km/h 6.9 km/h 45 % 0.0 mm
16:41 24.1 °C 11.8 °C 1018.8 hPa SW 14.8 km/h 14.8 km/h 46 % 0.0 mm
16:46 24.0 °C 11.7 °C 1018.8 hPa SW 10.0 km/h 10.0 km/h 46 % 0.0 mm
16:51 24.0 °C 11.7 °C 1018.8 hPa SSW 14.8 km/h 14.8 km/h 46 % 0.0 mm
16:56 23.7 °C 11.7 °C 1018.8 hPa West 13.0 km/h 13.0 km/h 47 % 0.0 mm
17:01 23.7 °C 11.7 °C 1018.8 hPa SSE 9.3 km/h 9.3 km/h 47 % 0.0 mm
17:06 23.8 °C 11.8 °C 1018.8 hPa South 5.6 km/h 5.6 km/h 47 % 0.0 mm
17:11 23.5 °C 11.6 °C 1018.8 hPa SSW 7.4 km/h 7.4 km/h 47 % 0.0 mm
17:16 23.3 °C 11.7 °C 1018.8 hPa SW 14.8 km/h 14.8 km/h 48 % 0.0 mm
17:21 23.4 °C 11.8 °C 1018.8 hPa SW 13.0 km/h 13.0 km/h 48 % 0.0 mm
17:27 23.4 °C 11.8 °C 1018.8 hPa SSW 16.7 km/h 16.7 km/h 48 % 0.0 mm
17:32 23.5 °C 11.8 °C 1017.8 hPa SW 9.3 km/h 9.3 km/h 48 % 0.0 mm
17:37 23.6 °C 11.9 °C 1017.8 hPa WSW 14.0 km/h 14.0 km/h 48 % 0.0 mm
17:42 23.2 °C 11.9 °C 1017.8 hPa SSW 9.3 km/h 9.3 km/h 49 % 0.0 mm
17:47 23.1 °C 11.8 °C 1018.8 hPa WSW 11.1 km/h 11.1 km/h 49 % 0.0 mm
17:52 22.8 °C 11.8 °C 1018.8 hPa SSW 14.8 km/h 14.8 km/h 50 % 0.0 mm
17:57 22.6 °C 11.9 °C 1018.8 hPa SSW 7.4 km/h 7.4 km/h 51 % 0.0 mm
18:02 22.4 °C 11.8 °C 1018.8 hPa SSW 11.1 km/h 11.1 km/h 51 % 0.0 mm
18:07 22.4 °C 11.8 °C 1018.8 hPa SW 7.4 km/h 7.4 km/h 51 % 0.0 mm
18:12 22.2 °C 11.9 °C 1018.8 hPa SW 10.0 km/h 10.0 km/h 52 % 0.0 mm
18:17 22.0 °C 11.7 °C 1018.8 hPa WSW 16.7 km/h 16.7 km/h 52 % 0.0 mm
18:22 21.8 °C 11.8 °C 1018.8 hPa SSW 15.1 km/h 15.1 km/h 53 % 0.0 mm
18:27 21.6 °C 11.6 °C 1018.8 hPa SSW 11.1 km/h 11.1 km/h 53 % 0.0 mm
18:32 21.4 °C 11.7 °C 1018.8 hPa West 9.3 km/h 9.3 km/h 54 % 0.0 mm
18:37 21.3 °C 11.6 °C 1018.8 hPa West 9.7 km/h 9.7 km/h 54 % 0.0 mm
18:42 21.3 °C 11.9 °C 1018.8 hPa WSW 5.6 km/h 5.6 km/h 55 % 0.0 mm
18:47 21.2 °C 12.1 °C 1018.8 hPa SSW 13.0 km/h 13.0 km/h 56 % 0.0 mm
18:52 21.1 °C 12.0 °C 1018.8 hPa SW 6.1 km/h 6.1 km/h 56 % 0.0 mm
18:57 21.1 °C 12.2 °C 1018.8 hPa SSW 7.4 km/h 7.4 km/h 57 % 0.0 mm
19:02 21.1 °C 12.2 °C 1019.9 hPa South 7.4 km/h 7.4 km/h 57 % 0.0 mm
19:07 21.1 °C 12.2 °C 1019.9 hPa SSW 9.3 km/h 9.3 km/h 57 % 0.0 mm
19:12 21.1 °C 12.2 °C 1019.9 hPa SSW 5.6 km/h 5.6 km/h 57 % 0.0 mm
19:17 21.2 °C 12.3 °C 1019.9 hPa SW 7.4 km/h 7.4 km/h 57 % 0.0 mm
19:22 21.2 °C 12.6 °C 1019.9 hPa WSW 3.7 km/h 3.7 km/h 58 % 0.0 mm
19:25 19.2 °C 13.6 °C 1022.9 hPa SW 1.6 km/h 3.2 km/h 70 % 0.0 mm
19:27 21.2 °C 12.6 °C 1019.9 hPa SW 5.8 km/h 5.8 km/h 58 % 0.0 mm
19:32 21.1 °C 12.5 °C 1019.9 hPa West 9.5 km/h 9.5 km/h 58 % 0.0 mm
19:35 19.1 °C 13.5 °C 1022.9 hPa SW 1.6 km/h 3.2 km/h 70 % 0.0 mm
19:37 21.0 °C 12.4 °C 1019.9 hPa SSE 5.6 km/h 5.6 km/h 58 % 0.0 mm
19:42 20.9 °C 12.3 °C 1019.9 hPa SSW 7.4 km/h 7.4 km/h 58 % 0.0 mm
19:45 19.1 °C 13.7 °C 1022.9 hPa SW 1.6 km/h 1.6 km/h 71 % 0.0 mm
19:47 20.7 °C 12.4 °C 1019.9 hPa SW 2.6 km/h 2.6 km/h 59 % 0.0 mm
19:52 20.6 °C 12.3 °C 1019.9 hPa SSW 3.7 km/h 3.7 km/h 59 % 0.0 mm
19:55 19.1 °C 13.7 °C 1022.9 hPa WSW 1.6 km/h 1.6 km/h 71 % 0.0 mm
19:57 20.5 °C 12.2 °C 1019.9 hPa WSW 3.7 km/h 3.7 km/h 59 % 0.0 mm
20:02 20.5 °C 12.4 °C 1019.9 hPa SSW 3.7 km/h 3.7 km/h 60 % 0.0 mm
20:05 19.2 °C 13.8 °C 1022.9 hPa Calm   1.6 km/h 71 % 0.0 mm
20:07 20.5 °C 12.4 °C 1019.9 hPa WSW 4.2 km/h 4.2 km/h 60 % 0.0 mm
20:12 20.5 °C 12.4 °C 1019.9 hPa SW 1.9 km/h   60 % 0.0 mm
20:15 19.1 °C 13.7 °C 1022.9 hPa Calm   3.2 km/h 71 % 0.0 mm
20:17 20.4 °C 12.6 °C 1020.9 hPa WSW 3.7 km/h 3.7 km/h 61 % 0.0 mm
20:22 20.4 °C 12.6 °C 1020.9 hPa SW 3.7 km/h 3.7 km/h 61 % 0.0 mm
20:25 19.1 °C 13.7 °C 1022.9 hPa WSW 1.6 km/h 1.6 km/h 71 % 0.0 mm
20:27 20.4 °C 12.6 °C 1020.9 hPa SW 1.9 km/h   61 % 0.0 mm
20:32 20.4 °C 12.6 °C 1021.9 hPa SW 9.3 km/h 9.3 km/h 61 % 0.0 mm
20:35 19.1 °C 13.7 °C 1022.9 hPa WSW 1.6 km/h 3.2 km/h 71 % 0.0 mm
20:37 20.3 °C 12.6 °C 1021.9 hPa SSW 4.7 km/h 4.7 km/h 61 % 0.0 mm
20:42 20.3 °C 12.8 °C 1021.9 hPa SW 4.7 km/h 4.7 km/h 62 % 0.0 mm
20:45 18.9 °C 13.7 °C 1022.9 hPa West 1.6 km/h 4.8 km/h 72 % 0.0 mm
20:47 20.2 °C 12.7 °C 1021.9 hPa SSW 7.4 km/h 7.4 km/h 62 % 0.0 mm
20:52 20.1 °C 12.6 °C 1021.9 hPa SW 3.7 km/h 3.7 km/h 62 % 0.0 mm
20:55 18.7 °C 13.6 °C 1022.9 hPa Calm   4.8 km/h 72 % 0.0 mm
20:57 20.1 °C 12.8 °C 1021.9 hPa Calm     63 % 0.0 mm
21:02 20.1 °C 12.8 °C 1021.9 hPa SW 1.9 km/h 1.9 km/h 63 % 0.0 mm
21:05 18.6 °C 13.4 °C 1022.9 hPa Calm     72 % 0.0 mm
21:07 20.0 °C 12.7 °C 1021.9 hPa SW 5.6 km/h 5.6 km/h 63 % 0.0 mm
21:12 20.0 °C 12.7 °C 1021.9 hPa SW 3.7 km/h 3.7 km/h 63 % 0.0 mm
21:15 18.4 °C 13.3 °C 1022.9 hPa Calm     72 % 0.0 mm
21:17 20.0 °C 13.0 °C 1020.9 hPa SW 3.7 km/h 3.7 km/h 64 % 0.0 mm
21:22 20.0 °C 13.0 °C 1020.9 hPa SSW 1.9 km/h   64 % 0.0 mm
21:25 18.2 °C 13.3 °C 1022.9 hPa Calm   1.6 km/h 73 % 0.0 mm
21:27 20.0 °C 13.0 °C 1020.9 hPa WSW 2.3 km/h 2.3 km/h 64 % 0.0 mm
21:32 19.9 °C 13.1 °C 1021.9 hPa SW 3.7 km/h 3.7 km/h 65 % 0.0 mm
21:35 18.0 °C 13.1 °C 1022.9 hPa Calm     73 % 0.0 mm
21:37 19.9 °C 13.3 °C 1021.9 hPa SW 2.3 km/h 2.3 km/h 66 % 0.0 mm
21:42 19.8 °C 13.3 °C 1021.9 hPa WNW 3.5 km/h 3.9 km/h 66 % 0.0 mm
21:45 17.8 °C 13.1 °C 1022.9 hPa Calm     74 % 0.0 mm
21:47 19.7 °C 12.9 °C 1021.9 hPa SW 4.7 km/h 4.7 km/h 65 % 0.0 mm
21:52 19.7 °C 13.2 °C 1021.9 hPa WSW 3.7 km/h 3.7 km/h 66 % 0.0 mm
21:55 17.6 °C 12.9 °C 1022.9 hPa Calm     74 % 0.0 mm
21:57 19.6 °C 13.3 °C 1021.9 hPa SW 1.4 km/h   67 % 0.0 mm
22:02 19.5 °C 13.2 °C 1021.9 hPa SW 2.3 km/h 2.3 km/h 67 % 0.0 mm
22:05 17.5 °C 13.0 °C 1022.9 hPa Calm     75 % 0.0 mm
22:07 19.5 °C 13.2 °C 1021.9 hPa SW 3.7 km/h 3.7 km/h 67 % 0.0 mm
22:12 19.4 °C 13.1 °C 1021.9 hPa SW 5.6 km/h 5.6 km/h 67 % 0.0 mm
22:15 17.3 °C 12.8 °C 1022.9 hPa WSW 1.6 km/h 3.2 km/h 75 % 0.0 mm
22:17 19.3 °C 13.0 °C 1021.9 hPa SW 1.9 km/h 1.9 km/h 67 % 0.0 mm
22:22 19.3 °C 13.2 °C 1021.9 hPa WSW 1.9 km/h   68 % 0.0 mm
22:25 17.3 °C 13.0 °C 1021.9 hPa Calm     76 % 0.0 mm
22:27 19.2 °C 13.2 °C 1021.9 hPa WSW 1.9 km/h   68 % 0.0 mm
22:32 19.2 °C 13.2 °C 1022.9 hPa West 1.9 km/h   68 % 0.0 mm
22:35 17.3 °C 13.0 °C 1021.9 hPa Calm     76 % 0.0 mm
22:37 19.2 °C 13.4 °C 1022.9 hPa Calm     69 % 0.0 mm
22:42 19.2 °C 13.4 °C 1022.9 hPa WSW 1.9 km/h 1.9 km/h 69 % 0.0 mm
22:45 17.0 °C 12.7 °C 1021.9 hPa West 1.6 km/h 3.2 km/h 76 % 0.0 mm
22:47 19.2 °C 13.4 °C 1022.9 hPa West 1.9 km/h   69 % 0.0 mm
22:52 19.2 °C 13.4 °C 1022.9 hPa Calm     69 % 0.0 mm
22:55 17.0 °C 12.7 °C 1021.9 hPa Calm   1.6 km/h 76 % 0.0 mm
22:57 19.2 °C 13.4 °C 1022.9 hPa SW 1.9 km/h   69 % 0.0 mm
23:02 19.2 °C 13.4 °C 1022.9 hPa West 1.9 km/h 1.9 km/h 69 % 0.0 mm
23:05 16.8 °C 12.9 °C 1021.9 hPa SSW 1.6 km/h 1.6 km/h 78 % 0.0 mm
23:07 19.2 °C 13.4 °C 1022.9 hPa WSW 3.7 km/h 3.7 km/h 69 % 0.0 mm
23:12 19.3 °C 13.4 °C 1022.9 hPa SW 3.7 km/h 3.7 km/h 69 % 0.0 mm
23:15 16.8 °C 12.9 °C 1021.9 hPa Calm   1.6 km/h 78 % 0.0 mm
23:17 19.3 °C 13.4 °C 1022.9 hPa WSW 3.5 km/h 3.5 km/h 69 % 0.0 mm
23:22 19.3 °C 13.7 °C 1022.9 hPa WSW 2.6 km/h 2.6 km/h 70 % 0.0 mm
23:25 16.7 °C 12.8 °C 1021.9 hPa Calm     78 % 0.0 mm
23:27 19.3 °C 13.7 °C 1022.9 hPa SW 1.9 km/h   70 % 0.0 mm
23:32 19.2 °C 13.6 °C 1022.9 hPa WNW 1.9 km/h   70 % 0.0 mm
23:35 16.8 °C 12.9 °C 1021.9 hPa Calm   1.6 km/h 78 % 0.0 mm
23:37 19.2 °C 13.6 °C 1022.9 hPa SW 3.7 km/h 3.7 km/h 70 % 0.0 mm
23:42 19.2 °C 13.6 °C 1022.9 hPa WSW 1.9 km/h 1.9 km/h 70 % 0.0 mm
23:45 16.8 °C 13.1 °C 1021.9 hPa Calm     79 % 0.0 mm
23:47 19.2 °C 13.6 °C 1022.9 hPa WSW 1.9 km/h 1.9 km/h 70 % 0.0 mm
23:52 19.2 °C 13.6 °C 1022.9 hPa WSW 1.9 km/h   70 % 0.0 mm
23:55 16.7 °C 13.1 °C 1021.9 hPa Calm   3.2 km/h 79 % 0.0 mm
23:57 19.2 °C 13.6 °C 1022.9 hPa SW 3.7 km/h 3.7 km/h 70 % 0.0 mm
Meteo Sesrovires
Elogis d' Weather Underground - 3.75 mb

Guio original per  Jim McMurry - jmcmurry@mwt.net Adaptat per a la plantilla per  Wim van der Kuil - Leuven-Template.eu

Trobareu la nostra informacio del temps tambe a:

Weather Underground

AWEKAS